createdAt,value
2022-09-06T00:00:47.580Z,20.79
2022-09-06T00:03:32.332Z,20.97
2022-09-06T00:06:17.069Z,21.03
2022-09-06T00:09:01.919Z,20.93
2022-09-06T00:11:46.619Z,20.82
2022-09-06T00:14:31.378Z,20.75
2022-09-06T00:17:16.135Z,20.64
2022-09-06T00:20:00.887Z,20.58
2022-09-06T00:22:45.561Z,20.68
2022-09-06T00:25:30.672Z,20.87
2022-09-06T00:28:15.351Z,21.21
2022-09-06T00:31:00.213Z,21.47
2022-09-06T00:33:44.915Z,21.77
2022-09-06T00:36:29.747Z,22.01
2022-09-06T00:39:14.591Z,22.15
2022-09-06T00:41:59.313Z,22.25
2022-09-06T00:44:44.197Z,22.18
2022-09-06T00:47:28.958Z,22.02
2022-09-06T00:50:13.839Z,21.91
2022-09-06T00:52:58.514Z,21.73
2022-09-06T00:55:43.393Z,21.60
2022-09-06T00:58:28.313Z,21.44
2022-09-06T01:01:13.680Z,21.36
2022-09-06T01:03:58.784Z,21.17
2022-09-06T01:06:43.489Z,21.15
2022-09-06T01:09:28.365Z,20.98
2022-09-06T01:12:13.058Z,20.90
2022-09-06T01:14:57.892Z,20.74
2022-09-06T01:17:42.663Z,20.47
2022-09-06T01:20:27.523Z,20.24
2022-09-06T01:23:12.135Z,20.05
2022-09-06T01:25:56.973Z,20.04
2022-09-06T01:28:41.686Z,20.22
2022-09-06T01:31:26.398Z,20.59
2022-09-06T01:34:11.774Z,20.91
2022-09-06T01:37:09.426Z,21.31
2022-09-06T01:39:55.409Z,21.72
2022-09-06T01:42:40.491Z,21.89
2022-09-06T01:45:25.436Z,21.89
2022-09-06T01:48:10.155Z,21.88
2022-09-06T01:50:54.959Z,21.96
2022-09-06T01:53:39.628Z,21.89
2022-09-06T01:56:24.439Z,21.79
2022-09-06T01:59:09.003Z,21.57
2022-09-06T02:01:53.915Z,21.58
2022-09-06T02:04:39.101Z,21.37
2022-09-06T02:07:23.839Z,21.14
2022-09-06T02:10:08.616Z,20.86
2022-09-06T02:12:53.436Z,20.66
2022-09-06T02:15:38.231Z,20.67
2022-09-06T02:18:23.180Z,20.54
2022-09-06T02:21:08.362Z,20.58
2022-09-06T02:23:53.012Z,20.69
2022-09-06T02:26:37.953Z,20.66
2022-09-06T02:29:22.653Z,20.77
2022-09-06T02:32:07.561Z,20.80
2022-09-06T02:34:52.364Z,20.79
2022-09-06T02:37:37.138Z,20.63
2022-09-06T02:40:21.881Z,20.45
2022-09-06T02:43:06.611Z,20.41
2022-09-06T02:45:51.520Z,20.32
2022-09-06T02:48:36.707Z,20.25
2022-09-06T02:51:21.493Z,20.33
2022-09-06T02:54:06.109Z,20.75
2022-09-06T02:56:52.487Z,21.09
2022-09-06T02:59:37.610Z,21.07
2022-09-06T03:02:22.475Z,21.04
2022-09-06T03:05:07.721Z,21.22
2022-09-06T03:07:52.496Z,21.43
2022-09-06T03:10:37.378Z,21.55
2022-09-06T03:13:22.539Z,21.68
2022-09-06T03:16:07.362Z,21.86
2022-09-06T03:18:52.144Z,22.05
2022-09-06T03:21:36.815Z,21.91
2022-09-06T03:24:21.568Z,21.67
2022-09-06T03:27:06.276Z,21.26
2022-09-06T03:29:51.181Z,21.02
2022-09-06T03:32:35.735Z,20.80
2022-09-06T03:35:20.648Z,20.69
2022-09-06T03:38:05.316Z,20.47
2022-09-06T03:40:50.022Z,20.32
2022-09-06T03:43:34.753Z,20.36
2022-09-06T03:46:19.681Z,20.37
2022-09-06T03:49:04.333Z,20.31
2022-09-06T03:51:49.154Z,20.38
2022-09-06T03:54:33.784Z,20.39
2022-09-06T03:57:18.596Z,20.41
2022-09-06T04:00:03.341Z,20.23
2022-09-06T04:02:48.187Z,19.99
2022-09-06T04:05:33.448Z,19.79
2022-09-06T04:08:18.280Z,19.68
2022-09-06T04:11:03.111Z,19.67
2022-09-06T04:13:47.804Z,19.53
2022-09-06T04:16:32.631Z,19.55
2022-09-06T04:19:17.988Z,19.57
2022-09-06T04:22:02.785Z,19.99
2022-09-06T04:24:47.668Z,20.62
2022-09-06T04:27:32.392Z,21.05
2022-09-06T04:30:17.115Z,21.35
2022-09-06T04:33:01.774Z,21.43
2022-09-06T04:35:46.535Z,21.53
2022-09-06T04:38:31.431Z,21.68
2022-09-06T04:41:16.272Z,21.85
2022-09-06T04:44:01.159Z,22.04
2022-09-06T04:46:45.786Z,22.08
2022-09-06T04:49:30.608Z,22.09
2022-09-06T04:52:15.299Z,22.05
2022-09-06T04:55:00.007Z,22.09
2022-09-06T04:57:48.469Z,21.84
2022-09-06T05:00:35.430Z,21.42
2022-09-06T05:03:20.299Z,20.99
2022-09-06T05:06:04.961Z,20.59
2022-09-06T05:08:49.778Z,20.37
2022-09-06T05:11:34.558Z,20.11
2022-09-06T05:14:19.197Z,20.27
2022-09-06T05:17:03.900Z,20.01
2022-09-06T05:19:48.603Z,20.16
2022-09-06T05:22:33.272Z,20.40
2022-09-06T05:25:18.028Z,20.69
2022-09-06T05:28:02.946Z,20.93
2022-09-06T05:30:47.598Z,20.93
2022-09-06T05:33:32.410Z,20.89
2022-09-06T05:36:17.124Z,20.87
2022-09-06T05:39:01.901Z,21.14
2022-09-06T05:41:46.594Z,21.46
2022-09-06T05:44:31.419Z,21.73
2022-09-06T05:47:16.286Z,21.91
2022-09-06T05:50:01.070Z,22.12
2022-09-06T05:52:45.772Z,22.23
2022-09-06T05:55:30.447Z,22.29
2022-09-06T05:58:15.144Z,22.37
2022-09-06T06:00:59.904Z,22.48
2022-09-06T06:03:44.589Z,22.62
2022-09-06T06:06:29.385Z,22.63
2022-09-06T06:09:14.290Z,22.68
2022-09-06T06:11:58.977Z,22.68
2022-09-06T06:14:43.849Z,22.54
2022-09-06T06:17:28.547Z,22.29
2022-09-06T06:20:13.368Z,22.10
2022-09-06T06:22:58.205Z,22.86
2022-09-06T06:25:42.970Z,25.02
2022-09-06T06:28:27.912Z,26.35
2022-09-06T06:31:13.129Z,28.35
2022-09-06T06:33:58.425Z,29.87
2022-09-06T06:36:43.136Z,30.59
2022-09-06T06:39:27.897Z,31.45
2022-09-06T06:42:13.146Z,32.26
2022-09-06T06:44:57.909Z,32.47
2022-09-06T06:47:42.807Z,32.61
2022-09-06T06:50:27.429Z,32.32
2022-09-06T06:53:12.288Z,32.78
2022-09-06T06:55:56.902Z,33.18
2022-09-06T06:58:41.762Z,33.05
2022-09-06T07:01:26.677Z,32.93
2022-09-06T07:04:11.804Z,33.43
2022-09-06T07:13:06.362Z,34.37
2022-09-06T07:15:51.132Z,34.50
2022-09-06T07:18:35.802Z,34.51
2022-09-06T07:24:20.952Z,33.08
2022-09-06T07:30:10.780Z,31.17
2022-09-06T07:32:55.438Z,29.23
2022-09-06T07:35:40.281Z,27.78
2022-09-06T07:38:24.937Z,26.37
2022-09-06T07:41:09.936Z,25.19
2022-09-06T07:43:54.659Z,24.62
2022-09-06T07:46:39.511Z,24.70
2022-09-06T07:49:24.612Z,24.76
2022-09-06T07:55:14.497Z,24.98
2022-09-06T07:57:59.324Z,25.07
2022-09-06T08:00:44.164Z,25.17
2022-09-06T08:03:29.411Z,25.24
2022-09-06T08:06:14.701Z,25.16
2022-09-06T08:08:59.764Z,24.33
2022-09-06T08:11:44.834Z,23.99
2022-09-06T08:14:29.546Z,24.04
2022-09-06T08:17:14.187Z,24.32
2022-09-06T08:19:59.073Z,24.65
2022-09-06T08:22:43.683Z,24.84
2022-09-06T08:25:28.405Z,24.99
2022-09-06T08:28:13.018Z,25.08
2022-09-06T08:30:57.831Z,25.04
2022-09-06T08:33:42.617Z,25.10
2022-09-06T08:36:27.460Z,25.20
2022-09-06T08:39:12.322Z,25.06
2022-09-06T08:41:57.318Z,24.17
2022-09-06T08:44:58.008Z,23.85
2022-09-06T08:47:43.412Z,23.70
2022-09-06T08:50:28.194Z,23.75
2022-09-06T08:53:17.107Z,24.09
2022-09-06T08:56:02.555Z,24.38
2022-09-06T08:58:47.412Z,24.58
2022-09-06T09:01:32.101Z,24.88
2022-09-06T09:04:16.927Z,24.81
2022-09-06T09:07:01.702Z,25.04
2022-09-06T09:09:46.563Z,25.19
2022-09-06T09:12:31.305Z,25.03
2022-09-06T09:15:16.087Z,24.69
2022-09-06T09:18:00.932Z,24.83
2022-09-06T09:20:45.713Z,24.88
2022-09-06T09:23:30.430Z,25.09
2022-09-06T09:26:15.135Z,25.34
2022-09-06T09:29:00.021Z,25.63
2022-09-06T09:31:44.784Z,25.78
2022-09-06T09:34:29.461Z,25.84
2022-09-06T09:40:18.996Z,26.23
2022-09-06T09:43:03.802Z,26.16
2022-09-06T09:45:48.565Z,26.32
2022-09-06T09:48:33.351Z,26.16
2022-09-06T09:51:25.442Z,26.05
2022-09-06T09:54:11.941Z,26.23
2022-09-06T09:56:56.689Z,26.13
2022-09-06T09:59:41.627Z,26.01
2022-09-06T10:02:26.195Z,26.23
2022-09-06T10:05:11.068Z,26.44
2022-09-06T10:07:55.740Z,26.33
2022-09-06T10:10:40.529Z,26.09
2022-09-06T10:13:25.199Z,25.30
2022-09-06T10:16:10.019Z,24.89
2022-09-06T10:18:55.133Z,24.76
2022-09-06T10:21:39.903Z,24.52
2022-09-06T10:27:14.547Z,24.30
2022-09-06T10:29:59.297Z,24.26
2022-09-06T10:32:43.994Z,24.34
2022-09-06T10:35:28.861Z,24.48
2022-09-06T10:38:13.653Z,24.85
2022-09-06T10:40:58.352Z,24.66
2022-09-06T10:43:43.166Z,24.70
2022-09-06T10:46:27.899Z,24.68
2022-09-06T10:49:12.562Z,24.85
2022-09-06T10:51:57.256Z,24.67
2022-09-06T10:54:41.944Z,24.73
2022-09-06T11:00:31.341Z,24.03
2022-09-06T11:06:22.492Z,24.72
2022-09-06T11:09:09.426Z,24.74
2022-09-06T11:11:54.287Z,24.90
2022-09-06T11:14:39.379Z,24.67
2022-09-06T11:17:24.482Z,24.98
2022-09-06T11:20:09.245Z,24.82
2022-09-06T11:22:54.294Z,25.19
2022-09-06T11:25:39.230Z,25.16
2022-09-06T11:28:23.847Z,25.11
2022-09-06T11:31:08.706Z,25.27
2022-09-06T11:33:54.540Z,25.51
2022-09-06T11:36:40.652Z,25.59
2022-09-06T11:42:30.327Z,25.81
2022-09-06T11:45:15.103Z,26.03
2022-09-06T11:47:59.879Z,26.30
2022-09-06T11:50:44.591Z,26.19
2022-09-06T11:53:29.519Z,25.89
2022-09-06T11:56:14.542Z,25.90
2022-09-06T11:58:59.488Z,25.76
2022-09-06T12:01:44.124Z,26.04
2022-09-06T12:04:28.929Z,26.22
2022-09-06T12:07:13.617Z,26.33
2022-09-06T12:09:58.468Z,26.38
2022-09-06T12:12:43.242Z,26.31
2022-09-06T12:15:27.953Z,26.17
2022-09-06T12:18:12.768Z,26.03
2022-09-06T12:20:57.480Z,25.89
2022-09-06T12:23:42.362Z,26.01
2022-09-06T12:26:27.145Z,25.96
2022-09-06T12:29:11.871Z,25.95
2022-09-06T12:31:56.358Z,25.78
2022-09-06T12:34:41.130Z,25.57
2022-09-06T12:37:25.862Z,25.79
2022-09-06T12:40:10.674Z,25.78
2022-09-06T12:42:55.850Z,25.90
2022-09-06T12:45:40.615Z,25.82
2022-09-06T12:48:25.416Z,25.98
2022-09-06T12:51:10.228Z,26.17
2022-09-06T12:53:55.056Z,26.27
2022-09-06T12:56:39.763Z,26.14
2022-09-06T12:59:24.563Z,26.00
2022-09-06T13:02:09.325Z,25.98
2022-09-06T13:04:54.641Z,25.94
2022-09-06T13:07:39.299Z,25.99
2022-09-06T13:10:24.141Z,26.14
2022-09-06T13:13:09.038Z,26.10
2022-09-06T13:15:54.022Z,26.13
2022-09-06T13:18:39.231Z,26.22
2022-09-06T13:21:23.907Z,26.19
2022-09-06T13:24:08.589Z,26.28
2022-09-06T13:26:53.453Z,26.44
2022-09-06T13:29:38.253Z,26.51
2022-09-06T13:32:23.011Z,26.58
2022-09-06T13:35:07.869Z,26.44
2022-09-06T13:37:52.606Z,26.29
2022-09-06T13:40:53.773Z,26.41
2022-09-06T13:43:42.413Z,26.44
2022-09-06T13:46:27.220Z,26.59
2022-09-06T13:49:12.372Z,26.70
2022-09-06T13:51:57.218Z,26.54
2022-09-06T13:54:41.887Z,26.49
2022-09-06T13:57:26.759Z,26.38
2022-09-06T14:00:11.507Z,26.52
2022-09-06T14:02:56.363Z,26.48
2022-09-06T14:05:41.543Z,26.33
2022-09-06T14:08:34.597Z,26.38
2022-09-06T14:11:32.546Z,26.46
2022-09-06T14:14:17.133Z,26.57
2022-09-06T14:17:01.878Z,26.55
2022-09-06T14:19:46.556Z,26.65
2022-09-06T14:22:31.258Z,26.42
2022-09-06T14:25:16.085Z,26.28
2022-09-06T14:28:00.913Z,26.10
2022-09-06T14:30:45.739Z,26.14
2022-09-06T14:33:30.422Z,25.97
2022-09-06T14:36:15.278Z,25.88
2022-09-06T14:38:59.935Z,25.75
2022-09-06T14:41:44.789Z,25.90
2022-09-06T14:44:29.483Z,25.84
2022-09-06T14:47:14.298Z,25.86
2022-09-06T14:49:59.005Z,25.80
2022-09-06T14:52:43.679Z,25.89
2022-09-06T14:55:28.386Z,26.09
2022-09-06T14:58:13.229Z,26.26
2022-09-06T15:00:57.994Z,26.02
2022-09-06T15:03:42.604Z,26.06
2022-09-06T15:06:27.346Z,26.03
2022-09-06T15:09:12.009Z,26.20
2022-09-06T15:11:56.843Z,26.37
2022-09-06T15:14:41.462Z,26.18
2022-09-06T15:17:26.208Z,26.21
2022-09-06T15:20:10.886Z,26.00
2022-09-06T15:23:15.193Z,26.06
2022-09-06T15:26:00.624Z,25.79
2022-09-06T15:28:45.149Z,25.80
2022-09-06T15:31:29.911Z,25.86
2022-09-06T15:34:14.596Z,25.91
2022-09-06T15:36:59.408Z,25.81
2022-09-06T15:39:44.185Z,25.64
2022-09-06T15:42:29.440Z,25.38
2022-09-06T15:45:14.300Z,25.25
2022-09-06T15:47:58.999Z,25.16
2022-09-06T15:50:51.339Z,25.15
2022-09-06T15:53:37.167Z,25.24
2022-09-06T15:56:21.871Z,25.25
2022-09-06T15:59:06.647Z,25.32
2022-09-06T16:01:51.278Z,25.36
2022-09-06T16:04:36.144Z,25.39
2022-09-06T16:07:20.735Z,25.43
2022-09-06T16:10:05.560Z,25.31
2022-09-06T16:12:50.734Z,25.33
2022-09-06T16:15:35.469Z,25.00
2022-09-06T16:18:20.334Z,24.80
2022-09-06T16:21:05.114Z,24.51
2022-09-06T16:23:49.989Z,24.44
2022-09-06T16:26:34.729Z,24.21
2022-09-06T16:29:19.528Z,24.06
2022-09-06T16:32:04.216Z,24.13
2022-09-06T16:34:49.019Z,24.20
2022-09-06T16:37:33.858Z,24.10
2022-09-06T16:40:18.548Z,24.25
2022-09-06T16:43:03.455Z,24.31
2022-09-06T16:45:48.227Z,24.10
2022-09-06T16:48:32.941Z,24.02
2022-09-06T16:51:17.742Z,23.98
2022-09-06T16:54:02.529Z,23.75
2022-09-06T16:56:47.270Z,23.61
2022-09-06T16:59:32.014Z,23.53
2022-09-06T17:02:16.836Z,23.61
2022-09-06T17:05:02.122Z,23.80
2022-09-06T17:07:46.747Z,23.86
2022-09-06T17:10:31.479Z,23.61
2022-09-06T17:13:16.303Z,23.56
2022-09-06T17:16:00.930Z,23.57
2022-09-06T17:18:45.888Z,23.76
2022-09-06T17:21:30.651Z,23.72
2022-09-06T17:24:15.439Z,23.55
2022-09-06T17:27:00.142Z,23.47
2022-09-06T17:29:45.015Z,23.38
2022-09-06T17:32:29.834Z,23.06
2022-09-06T17:35:14.613Z,23.01
2022-09-06T17:37:59.313Z,23.06
2022-09-06T17:40:44.093Z,23.13
2022-09-06T17:43:28.891Z,23.01
2022-09-06T17:46:13.643Z,23.14
2022-09-06T17:48:58.313Z,23.01
2022-09-06T17:51:43.017Z,22.53
2022-09-06T17:54:27.721Z,22.18
2022-09-06T17:57:12.371Z,21.93
2022-09-06T17:59:57.211Z,21.85
2022-09-06T18:02:41.981Z,21.92
2022-09-06T18:05:26.761Z,21.95
2022-09-06T18:08:12.029Z,21.92
2022-09-06T18:10:56.758Z,22.19
2022-09-06T18:13:41.637Z,22.50
2022-09-06T18:16:26.451Z,22.68
2022-09-06T18:19:11.754Z,22.89
2022-09-06T18:21:56.368Z,22.93
2022-09-06T18:24:41.042Z,22.60
2022-09-06T18:27:25.804Z,22.29
2022-09-06T18:30:14.630Z,22.05
2022-09-06T18:32:59.927Z,21.68
2022-09-06T18:35:44.726Z,21.23
2022-09-06T18:38:29.703Z,20.67
2022-09-06T18:41:14.994Z,20.17
2022-09-06T18:43:59.684Z,19.55
2022-09-06T18:46:44.531Z,19.08
2022-09-06T18:49:29.446Z,19.54
2022-09-06T18:52:14.204Z,20.16
2022-09-06T18:54:58.866Z,20.44
2022-09-06T18:57:44.066Z,20.65
2022-09-06T19:00:28.945Z,20.47
2022-09-06T19:03:13.874Z,20.30
2022-09-06T19:05:58.657Z,20.14
2022-09-06T19:08:43.429Z,19.89
2022-09-06T19:11:28.358Z,19.90
2022-09-06T19:14:13.156Z,19.83
2022-09-06T19:16:57.789Z,19.58
2022-09-06T19:19:42.433Z,19.45
2022-09-06T19:22:27.375Z,19.35
2022-09-06T19:25:12.094Z,19.28
2022-09-06T19:27:56.866Z,19.26
2022-09-06T19:30:41.565Z,19.27
2022-09-06T19:33:26.390Z,19.28
2022-09-06T19:36:12.364Z,19.33
2022-09-06T19:39:05.730Z,19.20
2022-09-06T19:41:50.962Z,19.12
2022-09-06T19:44:35.810Z,19.05
2022-09-06T19:47:20.560Z,19.00
2022-09-06T19:50:05.346Z,19.11
2022-09-06T19:52:49.915Z,19.11
2022-09-06T19:55:34.733Z,19.18
2022-09-06T19:58:19.445Z,19.24
2022-09-06T20:01:04.494Z,19.32
2022-09-06T20:03:49.743Z,19.30
2022-09-06T20:06:34.547Z,19.30
2022-09-06T20:09:19.344Z,19.56
2022-09-06T20:12:04.297Z,19.93
2022-09-06T20:14:49.663Z,20.45
2022-09-06T20:17:34.684Z,20.90
2022-09-06T20:20:19.765Z,21.37
2022-09-06T20:23:04.679Z,21.58
2022-09-06T20:25:49.460Z,21.53
2022-09-06T20:28:34.305Z,21.72
2022-09-06T20:31:18.997Z,21.78
2022-09-06T20:34:04.183Z,21.79
2022-09-06T20:36:48.933Z,21.83
2022-09-06T20:39:33.812Z,21.70
2022-09-06T20:42:19.014Z,21.51
2022-09-06T20:45:03.859Z,21.27
2022-09-06T20:47:48.671Z,21.06
2022-09-06T20:50:33.481Z,20.95
2022-09-06T20:53:18.357Z,20.84
2022-09-06T20:56:03.071Z,20.76
2022-09-06T20:58:47.865Z,20.87
2022-09-06T21:01:32.723Z,20.73
2022-09-06T21:04:18.045Z,20.45
2022-09-06T21:07:02.852Z,20.28
2022-09-06T21:09:47.721Z,19.88
2022-09-06T21:12:32.472Z,19.66
2022-09-06T21:15:17.344Z,19.41
2022-09-06T21:18:02.082Z,19.24
2022-09-06T21:20:46.863Z,19.08
2022-09-06T21:23:31.761Z,19.13
2022-09-06T21:26:16.537Z,19.46
2022-09-06T21:29:01.268Z,19.79
